sensor_id;sensor_type;location;lat;lon;timestamp;P1;durP1;ratioP1;P2;durP2;ratioP2
7719;SDS011;3902;49.474;8.616;2023-06-10T00:01:23;6.17;;;4.40;;
7719;SDS011;3902;49.474;8.616;2023-06-10T00:03:50;3.80;;;3.50;;
7719;SDS011;3902;49.474;8.616;2023-06-10T00:06:16;4.10;;;3.80;;
7719;SDS011;3902;49.474;8.616;2023-06-10T00:08:42;4.40;;;4.00;;
7719;SDS011;3902;49.474;8.616;2023-06-10T00:11:08;5.00;;;4.60;;
7719;SDS011;3902;49.474;8.616;2023-06-10T00:13:33;4.60;;;4.20;;
7719;SDS011;3902;49.474;8.616;2023-06-10T00:15:59;4.40;;;4.00;;
7719;SDS011;3902;49.474;8.616;2023-06-10T00:18:24;4.10;;;3.80;;
7719;SDS011;3902;49.474;8.616;2023-06-10T00:20:51;4.67;;;4.27;;
7719;SDS011;3902;49.474;8.616;2023-06-10T00:23:20;5.00;;;4.60;;
7719;SDS011;3902;49.474;8.616;2023-06-10T00:25:46;4.37;;;3.97;;
7719;SDS011;3902;49.474;8.616;2023-06-10T00:28:11;4.37;;;4.07;;
7719;SDS011;3902;49.474;8.616;2023-06-10T00:30:38;5.23;;;4.40;;
7719;SDS011;3902;49.474;8.616;2023-06-10T00:33:04;3.90;;;3.60;;
7719;SDS011;3902;49.474;8.616;2023-06-10T00:35:29;4.20;;;3.90;;
7719;SDS011;3902;49.474;8.616;2023-06-10T00:37:55;4.80;;;4.40;;
7719;SDS011;3902;49.474;8.616;2023-06-10T00:40:20;4.53;;;4.13;;
7719;SDS011;3902;49.474;8.616;2023-06-10T00:42:46;5.03;;;4.53;;
7719;SDS011;3902;49.474;8.616;2023-06-10T00:45:11;4.40;;;3.77;;
7719;SDS011;3902;49.474;8.616;2023-06-10T00:47:38;4.77;;;4.37;;
7719;SDS011;3902;49.474;8.616;2023-06-10T00:50:04;5.10;;;4.30;;
7719;SDS011;3902;49.474;8.616;2023-06-10T00:52:31;4.90;;;4.50;;
7719;SDS011;3902;49.474;8.616;2023-06-10T00:54:57;4.80;;;4.40;;
7719;SDS011;3902;49.474;8.616;2023-06-10T00:57:24;5.70;;;5.07;;
7719;SDS011;3902;49.474;8.616;2023-06-10T00:59:50;4.80;;;4.40;;
7719;SDS011;3902;49.474;8.616;2023-06-10T01:02:16;4.67;;;4.27;;
7719;SDS011;3902;49.474;8.616;2023-06-10T01:04:42;4.97;;;4.57;;
7719;SDS011;3902;49.474;8.616;2023-06-10T01:10:05;4.67;;;4.33;;
7719;SDS011;3902;49.474;8.616;2023-06-10T01:15:03;5.27;;;4.80;;
7719;SDS011;3902;49.474;8.616;2023-06-10T01:17:29;5.03;;;4.63;;
7719;SDS011;3902;49.474;8.616;2023-06-10T01:19:56;4.80;;;4.40;;
7719;SDS011;3902;49.474;8.616;2023-06-10T01:22:23;5.50;;;4.80;;
7719;SDS011;3902;49.474;8.616;2023-06-10T01:24:50;5.10;;;4.70;;
7719;SDS011;3902;49.474;8.616;2023-06-10T01:27:17;4.63;;;4.23;;
7719;SDS011;3902;49.474;8.616;2023-06-10T01:29:49;5.07;;;4.63;;
7719;SDS011;3902;49.474;8.616;2023-06-10T01:34:58;5.83;;;5.33;;
7719;SDS011;3902;49.474;8.616;2023-06-10T01:37:25;6.30;;;4.73;;
7719;SDS011;3902;49.474;8.616;2023-06-10T01:39:52;4.77;;;4.37;;
7719;SDS011;3902;49.474;8.616;2023-06-10T01:42:28;4.90;;;4.50;;
7719;SDS011;3902;49.474;8.616;2023-06-10T01:44:54;4.73;;;4.33;;
7719;SDS011;3902;49.474;8.616;2023-06-10T01:47:20;5.40;;;4.90;;
7719;SDS011;3902;49.474;8.616;2023-06-10T01:49:46;5.40;;;4.90;;
7719;SDS011;3902;49.474;8.616;2023-06-10T01:52:11;5.33;;;4.83;;
7719;SDS011;3902;49.474;8.616;2023-06-10T01:54:37;6.30;;;4.83;;
7719;SDS011;3902;49.474;8.616;2023-06-10T01:57:03;7.37;;;5.13;;
7719;SDS011;3902;49.474;8.616;2023-06-10T01:59:28;5.57;;;5.07;;
7719;SDS011;3902;49.474;8.616;2023-06-10T02:01:54;5.30;;;4.90;;
7719;SDS011;3902;49.474;8.616;2023-06-10T02:04:19;5.47;;;4.97;;
7719;SDS011;3902;49.474;8.616;2023-06-10T02:06:45;5.07;;;4.63;;
7719;SDS011;3902;49.474;8.616;2023-06-10T02:09:11;4.97;;;4.57;;
7719;SDS011;3902;49.474;8.616;2023-06-10T02:11:36;5.20;;;4.77;;
7719;SDS011;3902;49.474;8.616;2023-06-10T02:14:02;5.70;;;4.80;;
7719;SDS011;3902;49.474;8.616;2023-06-10T02:16:27;4.70;;;4.30;;
7719;SDS011;3902;49.474;8.616;2023-06-10T02:18:53;5.10;;;4.70;;
7719;SDS011;3902;49.474;8.616;2023-06-10T02:21:19;8.90;;;5.20;;
7719;SDS011;3902;49.474;8.616;2023-06-10T02:23:47;5.10;;;4.70;;
7719;SDS011;3902;49.474;8.616;2023-06-10T02:26:13;4.97;;;4.57;;
7719;SDS011;3902;49.474;8.616;2023-06-10T02:28:41;5.80;;;5.30;;
7719;SDS011;3902;49.474;8.616;2023-06-10T02:31:08;5.80;;;5.30;;
7719;SDS011;3902;49.474;8.616;2023-06-10T02:33:33;4.93;;;4.50;;
7719;SDS011;3902;49.474;8.616;2023-06-10T02:35:59;5.33;;;4.83;;
7719;SDS011;3902;49.474;8.616;2023-06-10T02:38:24;5.30;;;4.90;;
7719;SDS011;3902;49.474;8.616;2023-06-10T02:40:50;4.80;;;4.40;;
7719;SDS011;3902;49.474;8.616;2023-06-10T02:43:15;4.90;;;4.50;;
7719;SDS011;3902;49.474;8.616;2023-06-10T02:45:41;5.67;;;4.80;;
7719;SDS011;3902;49.474;8.616;2023-06-10T02:48:06;5.20;;;4.80;;
7719;SDS011;3902;49.474;8.616;2023-06-10T02:50:32;5.33;;;4.93;;
7719;SDS011;3902;49.474;8.616;2023-06-10T02:52:57;5.60;;;5.10;;
7719;SDS011;3902;49.474;8.616;2023-06-10T02:55:23;5.47;;;4.97;;
7719;SDS011;3902;49.474;8.616;2023-06-10T02:57:51;5.30;;;4.90;;
7719;SDS011;3902;49.474;8.616;2023-06-10T03:00:17;5.80;;;5.20;;
7719;SDS011;3902;49.474;8.616;2023-06-10T03:02:46;5.17;;;4.67;;
7719;SDS011;3902;49.474;8.616;2023-06-10T03:05:12;5.73;;;5.23;;
7719;SDS011;3902;49.474;8.616;2023-06-10T03:07:38;6.03;;;5.30;;
7719;SDS011;3902;49.474;8.616;2023-06-10T03:10:04;5.40;;;5.00;;
7719;SDS011;3902;49.474;8.616;2023-06-10T03:12:31;5.47;;;4.97;;
7719;SDS011;3902;49.474;8.616;2023-06-10T03:14:56;5.17;;;4.70;;
7719;SDS011;3902;49.474;8.616;2023-06-10T03:17:22;5.20;;;4.80;;
7719;SDS011;3902;49.474;8.616;2023-06-10T03:19:48;5.97;;;5.47;;
7719;SDS011;3902;49.474;8.616;2023-06-10T03:22:14;5.27;;;4.87;;
7719;SDS011;3902;49.474;8.616;2023-06-10T03:24:41;5.77;;;5.27;;
7719;SDS011;3902;49.474;8.616;2023-06-10T03:27:08;5.70;;;5.20;;
7719;SDS011;3902;49.474;8.616;2023-06-10T03:29:35;4.90;;;4.50;;
7719;SDS011;3902;49.474;8.616;2023-06-10T03:32:02;5.57;;;4.97;;
7719;SDS011;3902;49.474;8.616;2023-06-10T03:34:27;5.50;;;5.00;;
7719;SDS011;3902;49.474;8.616;2023-06-10T03:36:53;6.07;;;5.50;;
7719;SDS011;3902;49.474;8.616;2023-06-10T03:39:18;7.13;;;5.57;;
7719;SDS011;3902;49.474;8.616;2023-06-10T03:41:44;6.03;;;5.53;;
7719;SDS011;3902;49.474;8.616;2023-06-10T03:44:10;5.33;;;4.93;;
7719;SDS011;3902;49.474;8.616;2023-06-10T03:46:35;5.40;;;5.00;;
7719;SDS011;3902;49.474;8.616;2023-06-10T03:49:01;6.43;;;5.73;;
7719;SDS011;3902;49.474;8.616;2023-06-10T03:51:27;5.90;;;5.40;;
7719;SDS011;3902;49.474;8.616;2023-06-10T03:53:54;6.13;;;5.37;;
7719;SDS011;3902;49.474;8.616;2023-06-10T03:56:19;5.67;;;5.17;;
7719;SDS011;3902;49.474;8.616;2023-06-10T03:58:45;6.13;;;5.53;;
7719;SDS011;3902;49.474;8.616;2023-06-10T04:01:10;5.70;;;5.10;;
7719;SDS011;3902;49.474;8.616;2023-06-10T04:03:38;5.77;;;5.27;;
7719;SDS011;3902;49.474;8.616;2023-06-10T04:06:04;6.03;;;5.53;;
7719;SDS011;3902;49.474;8.616;2023-06-10T04:08:30;5.70;;;5.20;;
7719;SDS011;3902;49.474;8.616;2023-06-10T04:10:56;5.57;;;5.07;;
7719;SDS011;3902;49.474;8.616;2023-06-10T04:13:22;5.87;;;5.37;;
7719;SDS011;3902;49.474;8.616;2023-06-10T04:15:48;6.00;;;5.50;;
7719;SDS011;3902;49.474;8.616;2023-06-10T04:18:13;8.07;;;5.33;;
7719;SDS011;3902;49.474;8.616;2023-06-10T04:20:39;5.63;;;5.13;;
7719;SDS011;3902;49.474;8.616;2023-06-10T04:23:05;5.80;;;5.30;;
7719;SDS011;3902;49.474;8.616;2023-06-10T04:25:31;5.70;;;5.20;;
7719;SDS011;3902;49.474;8.616;2023-06-10T04:27:57;7.57;;;5.90;;
7719;SDS011;3902;49.474;8.616;2023-06-10T04:30:22;6.27;;;5.67;;
7719;SDS011;3902;49.474;8.616;2023-06-10T04:32:48;5.77;;;5.23;;
7719;SDS011;3902;49.474;8.616;2023-06-10T04:35:15;6.03;;;5.53;;
7719;SDS011;3902;49.474;8.616;2023-06-10T04:37:41;5.40;;;4.90;;
7719;SDS011;3902;49.474;8.616;2023-06-10T04:40:07;5.90;;;5.40;;
7719;SDS011;3902;49.474;8.616;2023-06-10T04:42:34;6.90;;;6.30;;
7719;SDS011;3902;49.474;8.616;2023-06-10T04:44:59;5.50;;;5.10;;
7719;SDS011;3902;49.474;8.616;2023-06-10T04:47:25;6.13;;;5.63;;
7719;SDS011;3902;49.474;8.616;2023-06-10T04:49:51;6.10;;;5.60;;
7719;SDS011;3902;49.474;8.616;2023-06-10T04:52:17;5.50;;;5.00;;
7719;SDS011;3902;49.474;8.616;2023-06-10T04:54:42;6.53;;;5.70;;
7719;SDS011;3902;49.474;8.616;2023-06-10T04:57:08;5.60;;;5.10;;
7719;SDS011;3902;49.474;8.616;2023-06-10T04:59:34;6.30;;;5.70;;
7719;SDS011;3902;49.474;8.616;2023-06-10T05:02:06;5.87;;;5.37;;
7719;SDS011;3902;49.474;8.616;2023-06-10T05:04:32;5.90;;;5.40;;
7719;SDS011;3902;49.474;8.616;2023-06-10T05:06:57;6.43;;;5.37;;
7719;SDS011;3902;49.474;8.616;2023-06-10T05:09:23;5.53;;;5.03;;
7719;SDS011;3902;49.474;8.616;2023-06-10T05:11:48;5.83;;;5.33;;
7719;SDS011;3902;49.474;8.616;2023-06-10T05:14:14;5.90;;;5.27;;
7719;SDS011;3902;49.474;8.616;2023-06-10T05:16:41;6.10;;;5.50;;
7719;SDS011;3902;49.474;8.616;2023-06-10T05:19:08;6.40;;;5.90;;
7719;SDS011;3902;49.474;8.616;2023-06-10T05:21:33;6.17;;;5.60;;
7719;SDS011;3902;49.474;8.616;2023-06-10T05:23:59;6.47;;;5.87;;
7719;SDS011;3902;49.474;8.616;2023-06-10T05:26:24;6.27;;;5.67;;
7719;SDS011;3902;49.474;8.616;2023-06-10T05:28:50;5.70;;;5.20;;
7719;SDS011;3902;49.474;8.616;2023-06-10T05:31:15;6.23;;;5.67;;
7719;SDS011;3902;49.474;8.616;2023-06-10T05:33:41;6.73;;;6.13;;
7719;SDS011;3902;49.474;8.616;2023-06-10T05:36:07;6.40;;;5.90;;
7719;SDS011;3902;49.474;8.616;2023-06-10T05:38:32;6.40;;;5.90;;
7719;SDS011;3902;49.474;8.616;2023-06-10T05:40:58;8.10;;;6.60;;
7719;SDS011;3902;49.474;8.616;2023-06-10T05:43:24;8.03;;;5.80;;
7719;SDS011;3902;49.474;8.616;2023-06-10T05:45:49;6.23;;;5.63;;
7719;SDS011;3902;49.474;8.616;2023-06-10T05:48:15;5.57;;;5.07;;
7719;SDS011;3902;49.474;8.616;2023-06-10T05:50:40;6.47;;;5.87;;
7719;SDS011;3902;49.474;8.616;2023-06-10T05:53:07;5.80;;;5.30;;
7719;SDS011;3902;49.474;8.616;2023-06-10T05:55:40;5.90;;;5.40;;
7719;SDS011;3902;49.474;8.616;2023-06-10T05:58:09;5.93;;;5.33;;
7719;SDS011;3902;49.474;8.616;2023-06-10T06:00:34;6.40;;;5.80;;
7719;SDS011;3902;49.474;8.616;2023-06-10T06:03:00;6.13;;;5.57;;
7719;SDS011;3902;49.474;8.616;2023-06-10T06:05:26;5.97;;;5.37;;
7719;SDS011;3902;49.474;8.616;2023-06-10T06:07:51;7.63;;;6.87;;
7719;SDS011;3902;49.474;8.616;2023-06-10T06:10:17;6.63;;;5.93;;
7719;SDS011;3902;49.474;8.616;2023-06-10T06:12:43;7.00;;;6.40;;
7719;SDS011;3902;49.474;8.616;2023-06-10T06:15:09;6.20;;;5.70;;
7719;SDS011;3902;49.474;8.616;2023-06-10T06:17:35;6.50;;;5.90;;
7719;SDS011;3902;49.474;8.616;2023-06-10T06:20:02;7.93;;;6.63;;
7719;SDS011;3902;49.474;8.616;2023-06-10T06:22:28;6.63;;;6.13;;
7719;SDS011;3902;49.474;8.616;2023-06-10T06:24:54;6.43;;;5.93;;
7719;SDS011;3902;49.474;8.616;2023-06-10T06:27:19;6.90;;;6.30;;
7719;SDS011;3902;49.474;8.616;2023-06-10T06:29:46;7.47;;;5.90;;
7719;SDS011;3902;49.474;8.616;2023-06-10T06:32:11;6.97;;;5.53;;
7719;SDS011;3902;49.474;8.616;2023-06-10T06:34:37;6.50;;;5.90;;
7719;SDS011;3902;49.474;8.616;2023-06-10T06:37:03;7.10;;;6.37;;
7719;SDS011;3902;49.474;8.616;2023-06-10T06:39:28;6.17;;;5.67;;
7719;SDS011;3902;49.474;8.616;2023-06-10T06:41:54;6.00;;;5.50;;
7719;SDS011;3902;49.474;8.616;2023-06-10T06:44:19;5.63;;;5.13;;
7719;SDS011;3902;49.474;8.616;2023-06-10T06:46:45;5.60;;;5.20;;
7719;SDS011;3902;49.474;8.616;2023-06-10T06:49:11;5.60;;;5.10;;
7719;SDS011;3902;49.474;8.616;2023-06-10T06:51:36;6.10;;;5.50;;
7719;SDS011;3902;49.474;8.616;2023-06-10T06:54:02;5.10;;;4.70;;
7719;SDS011;3902;49.474;8.616;2023-06-10T06:56:27;5.20;;;4.80;;
7719;SDS011;3902;49.474;8.616;2023-06-10T06:58:53;5.57;;;5.07;;
7719;SDS011;3902;49.474;8.616;2023-06-10T07:01:19;4.87;;;4.47;;
7719;SDS011;3902;49.474;8.616;2023-06-10T07:03:45;5.80;;;5.30;;
7719;SDS011;3902;49.474;8.616;2023-06-10T07:06:10;5.00;;;4.60;;
7719;SDS011;3902;49.474;8.616;2023-06-10T07:08:37;5.50;;;5.10;;
7719;SDS011;3902;49.474;8.616;2023-06-10T07:11:02;5.13;;;4.73;;
7719;SDS011;3902;49.474;8.616;2023-06-10T07:13:28;5.10;;;4.60;;
7719;SDS011;3902;49.474;8.616;2023-06-10T07:15:53;5.20;;;4.70;;
7719;SDS011;3902;49.474;8.616;2023-06-10T07:18:19;4.40;;;4.00;;
7719;SDS011;3902;49.474;8.616;2023-06-10T07:20:44;4.97;;;4.47;;
7719;SDS011;3902;49.474;8.616;2023-06-10T07:23:10;4.93;;;4.53;;
7719;SDS011;3902;49.474;8.616;2023-06-10T07:25:35;4.30;;;4.00;;
7719;SDS011;3902;49.474;8.616;2023-06-10T07:28:01;6.53;;;5.00;;
7719;SDS011;3902;49.474;8.616;2023-06-10T07:30:28;4.50;;;4.10;;
7719;SDS011;3902;49.474;8.616;2023-06-10T07:32:53;5.07;;;4.67;;
7719;SDS011;3902;49.474;8.616;2023-06-10T07:35:20;5.20;;;4.50;;
7719;SDS011;3902;49.474;8.616;2023-06-10T07:37:46;3.93;;;3.63;;
7719;SDS011;3902;49.474;8.616;2023-06-10T07:40:11;4.50;;;4.10;;
7719;SDS011;3902;49.474;8.616;2023-06-10T07:42:37;4.80;;;4.40;;
7719;SDS011;3902;49.474;8.616;2023-06-10T07:45:03;5.60;;;5.00;;
7719;SDS011;3902;49.474;8.616;2023-06-10T07:47:29;5.00;;;4.50;;
7719;SDS011;3902;49.474;8.616;2023-06-10T07:49:55;6.00;;;4.60;;
7719;SDS011;3902;49.474;8.616;2023-06-10T07:52:21;4.80;;;4.40;;
7719;SDS011;3902;49.474;8.616;2023-06-10T07:54:46;4.47;;;4.07;;
7719;SDS011;3902;49.474;8.616;2023-06-10T07:57:12;5.83;;;4.87;;
7719;SDS011;3902;49.474;8.616;2023-06-10T07:59:37;4.67;;;4.27;;
7719;SDS011;3902;49.474;8.616;2023-06-10T08:02:03;8.13;;;4.20;;
7719;SDS011;3902;49.474;8.616;2023-06-10T08:04:29;4.63;;;4.23;;
7719;SDS011;3902;49.474;8.616;2023-06-10T08:06:55;4.43;;;4.03;;
7719;SDS011;3902;49.474;8.616;2023-06-10T08:09:21;4.10;;;3.80;;
7719;SDS011;3902;49.474;8.616;2023-06-10T08:11:48;3.90;;;3.60;;
7719;SDS011;3902;49.474;8.616;2023-06-10T08:14:14;4.60;;;4.20;;
7719;SDS011;3902;49.474;8.616;2023-06-10T08:16:39;4.57;;;4.17;;
7719;SDS011;3902;49.474;8.616;2023-06-10T08:19:05;4.57;;;4.13;;
7719;SDS011;3902;49.474;8.616;2023-06-10T08:21:30;4.70;;;4.30;;
7719;SDS011;3902;49.474;8.616;2023-06-10T08:23:56;4.57;;;4.17;;
7719;SDS011;3902;49.474;8.616;2023-06-10T08:26:21;4.67;;;4.27;;
7719;SDS011;3902;49.474;8.616;2023-06-10T08:28:47;4.63;;;4.23;;
7719;SDS011;3902;49.474;8.616;2023-06-10T08:31:13;5.20;;;4.70;;
7719;SDS011;3902;49.474;8.616;2023-06-10T08:33:38;4.40;;;4.00;;
7719;SDS011;3902;49.474;8.616;2023-06-10T08:36:04;4.13;;;3.83;;
7719;SDS011;3902;49.474;8.616;2023-06-10T08:38:29;4.87;;;4.33;;
7719;SDS011;3902;49.474;8.616;2023-06-10T08:40:56;5.10;;;4.10;;
7719;SDS011;3902;49.474;8.616;2023-06-10T08:43:35;4.97;;;4.57;;
7719;SDS011;3902;49.474;8.616;2023-06-10T08:46:05;4.30;;;4.00;;
7719;SDS011;3902;49.474;8.616;2023-06-10T08:48:34;4.70;;;4.30;;
7719;SDS011;3902;49.474;8.616;2023-06-10T08:51:04;4.53;;;4.13;;
7719;SDS011;3902;49.474;8.616;2023-06-10T08:53:30;5.03;;;4.63;;
7719;SDS011;3902;49.474;8.616;2023-06-10T08:55:58;5.60;;;5.10;;
7719;SDS011;3902;49.474;8.616;2023-06-10T08:58:27;4.80;;;4.40;;
7719;SDS011;3902;49.474;8.616;2023-06-10T09:00:53;5.33;;;4.50;;
7719;SDS011;3902;49.474;8.616;2023-06-10T09:03:20;12.47;;;4.10;;
7719;SDS011;3902;49.474;8.616;2023-06-10T09:05:46;4.50;;;4.13;;
7719;SDS011;3902;49.474;8.616;2023-06-10T09:08:13;5.63;;;5.13;;
7719;SDS011;3902;49.474;8.616;2023-06-10T09:10:40;4.73;;;4.33;;
7719;SDS011;3902;49.474;8.616;2023-06-10T09:13:06;4.00;;;3.70;;
7719;SDS011;3902;49.474;8.616;2023-06-10T09:15:31;4.10;;;3.80;;
7719;SDS011;3902;49.474;8.616;2023-06-10T09:17:57;4.80;;;4.40;;
7719;SDS011;3902;49.474;8.616;2023-06-10T09:20:24;5.23;;;4.83;;
7719;SDS011;3902;49.474;8.616;2023-06-10T09:22:50;4.73;;;4.33;;
7719;SDS011;3902;49.474;8.616;2023-06-10T09:25:16;5.73;;;4.97;;
7719;SDS011;3902;49.474;8.616;2023-06-10T09:27:48;6.40;;;5.80;;
7719;SDS011;3902;49.474;8.616;2023-06-10T09:32:52;5.10;;;4.70;;
7719;SDS011;3902;49.474;8.616;2023-06-10T09:35:18;7.23;;;4.73;;
7719;SDS011;3902;49.474;8.616;2023-06-10T09:37:44;4.80;;;4.40;;
7719;SDS011;3902;49.474;8.616;2023-06-10T09:40:10;4.10;;;3.80;;
7719;SDS011;3902;49.474;8.616;2023-06-10T09:42:37;4.50;;;4.10;;
7719;SDS011;3902;49.474;8.616;2023-06-10T09:45:04;4.70;;;4.30;;
7719;SDS011;3902;49.474;8.616;2023-06-10T09:47:31;4.60;;;4.10;;
7719;SDS011;3902;49.474;8.616;2023-06-10T09:49:57;4.47;;;4.07;;
7719;SDS011;3902;49.474;8.616;2023-06-10T09:52:23;4.47;;;4.00;;
7719;SDS011;3902;49.474;8.616;2023-06-10T09:54:53;4.90;;;4.00;;
7719;SDS011;3902;49.474;8.616;2023-06-10T09:57:23;4.63;;;4.23;;
7719;SDS011;3902;49.474;8.616;2023-06-10T09:59:52;4.20;;;3.80;;
7719;SDS011;3902;49.474;8.616;2023-06-10T10:02:19;4.43;;;4.13;;
7719;SDS011;3902;49.474;8.616;2023-06-10T10:04:44;3.90;;;3.60;;
7719;SDS011;3902;49.474;8.616;2023-06-10T10:07:10;4.43;;;4.10;;
7719;SDS011;3902;49.474;8.616;2023-06-10T10:09:36;4.10;;;3.57;;
7719;SDS011;3902;49.474;8.616;2023-06-10T10:12:04;4.20;;;3.90;;
7719;SDS011;3902;49.474;8.616;2023-06-10T10:14:38;3.90;;;3.60;;
7719;SDS011;3902;49.474;8.616;2023-06-10T10:17:06;6.17;;;4.00;;
7719;SDS011;3902;49.474;8.616;2023-06-10T10:19:36;4.10;;;3.80;;
7719;SDS011;3902;49.474;8.616;2023-06-10T10:22:10;6.63;;;3.60;;
7719;SDS011;3902;49.474;8.616;2023-06-10T10:24:46;4.40;;;4.00;;
7719;SDS011;3902;49.474;8.616;2023-06-10T10:27:20;5.03;;;4.53;;
7719;SDS011;3902;49.474;8.616;2023-06-10T10:29:53;4.00;;;3.70;;
7719;SDS011;3902;49.474;8.616;2023-06-10T10:32:21;5.10;;;4.60;;
7719;SDS011;3902;49.474;8.616;2023-06-10T10:35:01;3.70;;;3.40;;
7719;SDS011;3902;49.474;8.616;2023-06-10T10:37:30;4.07;;;3.67;;
7719;SDS011;3902;49.474;8.616;2023-06-10T10:39:56;3.93;;;3.67;;
7719;SDS011;3902;49.474;8.616;2023-06-10T10:42:22;4.27;;;3.87;;
7719;SDS011;3902;49.474;8.616;2023-06-10T10:44:50;4.50;;;3.87;;
7719;SDS011;3902;49.474;8.616;2023-06-10T10:47:16;4.63;;;4.10;;
7719;SDS011;3902;49.474;8.616;2023-06-10T10:49:47;4.60;;;4.20;;
7719;SDS011;3902;49.474;8.616;2023-06-10T10:52:16;4.47;;;4.03;;
7719;SDS011;3902;49.474;8.616;2023-06-10T10:54:45;3.97;;;3.67;;
7719;SDS011;3902;49.474;8.616;2023-06-10T10:57:19;4.43;;;4.03;;
7719;SDS011;3902;49.474;8.616;2023-06-10T11:04:58;4.13;;;3.73;;
7719;SDS011;3902;49.474;8.616;2023-06-10T11:07:25;4.20;;;3.70;;
7719;SDS011;3902;49.474;8.616;2023-06-10T11:10:00;4.00;;;3.63;;
7719;SDS011;3902;49.474;8.616;2023-06-10T11:12:54;3.80;;;3.50;;
7719;SDS011;3902;49.474;8.616;2023-06-10T11:15:19;5.37;;;3.90;;
7719;SDS011;3902;49.474;8.616;2023-06-10T11:26:08;4.03;;;3.60;;
7719;SDS011;3902;49.474;8.616;2023-06-10T11:31:25;3.77;;;3.47;;
7719;SDS011;3902;49.474;8.616;2023-06-10T11:33:52;3.63;;;3.33;;
7719;SDS011;3902;49.474;8.616;2023-06-10T11:36:22;3.70;;;3.40;;
7719;SDS011;3902;49.474;8.616;2023-06-10T11:38:49;6.07;;;3.80;;
7719;SDS011;3902;49.474;8.616;2023-06-10T11:41:18;4.40;;;3.60;;
7719;SDS011;3902;49.474;8.616;2023-06-10T11:43:44;4.97;;;3.90;;
7719;SDS011;3902;49.474;8.616;2023-06-10T11:46:13;4.00;;;3.70;;
7719;SDS011;3902;49.474;8.616;2023-06-10T11:48:39;4.30;;;4.00;;
7719;SDS011;3902;49.474;8.616;2023-06-10T11:51:16;4.30;;;3.90;;
7719;SDS011;3902;49.474;8.616;2023-06-10T11:53:45;4.63;;;4.23;;
7719;SDS011;3902;49.474;8.616;2023-06-10T11:56:13;4.17;;;3.87;;
7719;SDS011;3902;49.474;8.616;2023-06-10T11:58:44;4.13;;;3.73;;
7719;SDS011;3902;49.474;8.616;2023-06-10T12:01:10;4.73;;;3.90;;
7719;SDS011;3902;49.474;8.616;2023-06-10T12:03:36;4.53;;;4.13;;
7719;SDS011;3902;49.474;8.616;2023-06-10T12:06:06;4.00;;;3.70;;
7719;SDS011;3902;49.474;8.616;2023-06-10T12:08:32;4.27;;;3.87;;
7719;SDS011;3902;49.474;8.616;2023-06-10T12:10:58;3.80;;;3.50;;
7719;SDS011;3902;49.474;8.616;2023-06-10T12:13:28;4.20;;;3.70;;
7719;SDS011;3902;49.474;8.616;2023-06-10T12:15:53;4.37;;;3.97;;
7719;SDS011;3902;49.474;8.616;2023-06-10T12:18:20;4.40;;;4.00;;
7719;SDS011;3902;49.474;8.616;2023-06-10T12:20:47;4.00;;;3.70;;
7719;SDS011;3902;49.474;8.616;2023-06-10T12:23:14;3.73;;;3.43;;
7719;SDS011;3902;49.474;8.616;2023-06-10T12:25:50;5.53;;;4.00;;
7719;SDS011;3902;49.474;8.616;2023-06-10T12:28:24;3.77;;;3.47;;
7719;SDS011;3902;49.474;8.616;2023-06-10T12:30:51;3.40;;;3.20;;
7719;SDS011;3902;49.474;8.616;2023-06-10T12:33:30;4.33;;;4.00;;
7719;SDS011;3902;49.474;8.616;2023-06-10T12:35:56;4.40;;;3.60;;
7719;SDS011;3902;49.474;8.616;2023-06-10T12:38:22;4.20;;;3.80;;
7719;SDS011;3902;49.474;8.616;2023-06-10T12:40:49;3.93;;;3.63;;
7719;SDS011;3902;49.474;8.616;2023-06-10T12:43:19;3.90;;;3.60;;
7719;SDS011;3902;49.474;8.616;2023-06-10T12:45:46;3.83;;;3.53;;
7719;SDS011;3902;49.474;8.616;2023-06-10T12:48:21;3.50;;;3.20;;
7719;SDS011;3902;49.474;8.616;2023-06-10T12:50:52;3.50;;;3.27;;
7719;SDS011;3902;49.474;8.616;2023-06-10T12:53:19;3.70;;;3.40;;
7719;SDS011;3902;49.474;8.616;2023-06-10T12:55:45;3.90;;;3.60;;
7719;SDS011;3902;49.474;8.616;2023-06-10T12:58:12;3.67;;;3.43;;
7719;SDS011;3902;49.474;8.616;2023-06-10T13:00:38;3.70;;;3.40;;
7719;SDS011;3902;49.474;8.616;2023-06-10T13:03:04;4.10;;;3.80;;
7719;SDS011;3902;49.474;8.616;2023-06-10T13:05:30;4.30;;;3.60;;
7719;SDS011;3902;49.474;8.616;2023-06-10T13:07:57;4.10;;;3.80;;
7719;SDS011;3902;49.474;8.616;2023-06-10T13:10:23;4.20;;;3.90;;
7719;SDS011;3902;49.474;8.616;2023-06-10T13:12:49;4.43;;;4.03;;
7719;SDS011;3902;49.474;8.616;2023-06-10T13:15:15;4.00;;;3.70;;
7719;SDS011;3902;49.474;8.616;2023-06-10T13:17:44;3.70;;;3.40;;
7719;SDS011;3902;49.474;8.616;2023-06-10T13:20:13;3.77;;;3.47;;
7719;SDS011;3902;49.474;8.616;2023-06-10T13:22:39;4.23;;;3.80;;
7719;SDS011;3902;49.474;8.616;2023-06-10T13:25:05;3.93;;;3.63;;
7719;SDS011;3902;49.474;8.616;2023-06-10T13:27:34;4.30;;;3.90;;
7719;SDS011;3902;49.474;8.616;2023-06-10T13:30:03;3.30;;;3.03;;
7719;SDS011;3902;49.474;8.616;2023-06-10T13:32:29;3.70;;;3.40;;
7719;SDS011;3902;49.474;8.616;2023-06-10T13:34:54;3.90;;;3.60;;
7719;SDS011;3902;49.474;8.616;2023-06-10T13:37:20;4.13;;;3.83;;
7719;SDS011;3902;49.474;8.616;2023-06-10T13:39:46;3.80;;;3.50;;
7719;SDS011;3902;49.474;8.616;2023-06-10T13:42:13;3.93;;;3.63;;
7719;SDS011;3902;49.474;8.616;2023-06-10T13:44:39;3.60;;;3.37;;
7719;SDS011;3902;49.474;8.616;2023-06-10T13:47:04;3.87;;;3.57;;
7719;SDS011;3902;49.474;8.616;2023-06-10T13:49:31;3.77;;;3.47;;
7719;SDS011;3902;49.474;8.616;2023-06-10T13:51:57;3.60;;;3.30;;
7719;SDS011;3902;49.474;8.616;2023-06-10T13:54:22;3.83;;;3.53;;
7719;SDS011;3902;49.474;8.616;2023-06-10T13:56:48;3.90;;;3.53;;
7719;SDS011;3902;49.474;8.616;2023-06-10T13:59:13;3.43;;;3.23;;
7719;SDS011;3902;49.474;8.616;2023-06-10T14:01:39;3.40;;;3.20;;
7719;SDS011;3902;49.474;8.616;2023-06-10T14:04:05;3.53;;;3.20;;
7719;SDS011;3902;49.474;8.616;2023-06-10T14:06:32;3.97;;;3.67;;
7719;SDS011;3902;49.474;8.616;2023-06-10T14:08:58;3.37;;;3.17;;
7719;SDS011;3902;49.474;8.616;2023-06-10T14:11:24;3.60;;;3.30;;
7719;SDS011;3902;49.474;8.616;2023-06-10T14:13:50;5.50;;;3.77;;
7719;SDS011;3902;49.474;8.616;2023-06-10T14:16:15;3.70;;;3.40;;
7719;SDS011;3902;49.474;8.616;2023-06-10T14:18:41;3.80;;;3.50;;
7719;SDS011;3902;49.474;8.616;2023-06-10T14:21:06;3.38;;;3.08;;
7719;SDS011;3902;49.474;8.616;2023-06-10T14:23:32;3.42;;;3.22;;
7719;SDS011;3902;49.474;8.616;2023-06-10T14:25:57;3.70;;;3.40;;
7719;SDS011;3902;49.474;8.616;2023-06-10T14:28:23;3.25;;;3.05;;
7719;SDS011;3902;49.474;8.616;2023-06-10T14:30:50;3.97;;;3.33;;
7719;SDS011;3902;49.474;8.616;2023-06-10T14:33:17;3.47;;;3.17;;
7719;SDS011;3902;49.474;8.616;2023-06-10T14:35:42;3.47;;;3.17;;
7719;SDS011;3902;49.474;8.616;2023-06-10T14:38:08;3.83;;;3.53;;
7719;SDS011;3902;49.474;8.616;2023-06-10T14:40:34;3.43;;;3.20;;
7719;SDS011;3902;49.474;8.616;2023-06-10T14:42:59;3.93;;;3.53;;
7719;SDS011;3902;49.474;8.616;2023-06-10T14:45:29;3.47;;;3.17;;
7719;SDS011;3902;49.474;8.616;2023-06-10T14:47:54;3.57;;;3.30;;
7719;SDS011;3902;49.474;8.616;2023-06-10T14:50:20;4.03;;;3.73;;
7719;SDS011;3902;49.474;8.616;2023-06-10T14:52:45;3.50;;;3.30;;
7719;SDS011;3902;49.474;8.616;2023-06-10T14:55:11;3.80;;;3.50;;
7719;SDS011;3902;49.474;8.616;2023-06-10T14:57:36;3.58;;;3.38;;
7719;SDS011;3902;49.474;8.616;2023-06-10T15:00:02;3.78;;;3.47;;
7719;SDS011;3902;49.474;8.616;2023-06-10T15:02:28;3.50;;;3.20;;
7719;SDS011;3902;49.474;8.616;2023-06-10T15:04:54;4.07;;;3.78;;
7719;SDS011;3902;49.474;8.616;2023-06-10T15:07:19;3.58;;;3.30;;
7719;SDS011;3902;49.474;8.616;2023-06-10T15:09:45;3.22;;;3.03;;
7719;SDS011;3902;49.474;8.616;2023-06-10T15:12:10;4.72;;;3.17;;
7719;SDS011;3902;49.474;8.616;2023-06-10T15:14:36;3.63;;;3.33;;
7719;SDS011;3902;49.474;8.616;2023-06-10T15:17:01;3.35;;;3.08;;
7719;SDS011;3902;49.474;8.616;2023-06-10T15:19:27;3.90;;;3.60;;
7719;SDS011;3902;49.474;8.616;2023-06-10T15:21:53;4.88;;;3.42;;
7719;SDS011;3902;49.474;8.616;2023-06-10T15:24:18;3.70;;;3.40;;
7719;SDS011;3902;49.474;8.616;2023-06-10T15:26:44;3.78;;;3.47;;
7719;SDS011;3902;49.474;8.616;2023-06-10T15:29:10;4.18;;;3.80;;
7719;SDS011;3902;49.474;8.616;2023-06-10T15:31:36;5.40;;;3.17;;
7719;SDS011;3902;49.474;8.616;2023-06-10T15:34:02;3.97;;;3.25;;
7719;SDS011;3902;49.474;8.616;2023-06-10T15:36:28;3.60;;;3.30;;
7719;SDS011;3902;49.474;8.616;2023-06-10T15:38:54;5.85;;;3.60;;